Udo Maru — JM6522 — position and weather

sailwx.info

Track history (hours):
 
Tides and Currents Weather Stations Pressure Air Temp Water Temp Dewpoint Dewpoint Depression Visibility Wind Speed Wind Dir Waves Ship Positions

Udo Maru

Last reported at 2017-Mar-29 04:26 UTC. Time now 2017-Mar-29 05:23 UTC.
Position N 35°22' E 139°51'.

Length 87 m; draft 4.9 m.

Type: Cargo ship. MMSI: 431600499.

Date/timePositionNaut miles runAvg speedWind from/ knotsBaromVisibWave heightAir tempDewpointWater temp
2017-Mar-29 04:26N 35°22' E 139°51'0 0.0
2017-Mar-29 03:29N 35°22' E 139°51'0 0.0
2017-Mar-29 02:29N 35°22' E 139°51'0 0.0
2017-Mar-29 01:29N 35°22' E 139°51'0 0.0
2017-Mar-29 00:26N 35°22' E 139°51'0 0.0
2017-Mar-28 23:20N 35°22' E 139°51'0 0.0
2017-Mar-28 22:32N 35°22' E 139°51'0 0.0
2017-Mar-28 21:29N 35°22' E 139°51'0 0.0
2017-Mar-28 20:32N 35°22' E 139°51'0 0.0
2017-Mar-28 19:32N 35°22' E 139°51'0 0.0
2017-Mar-28 18:32N 35°22' E 139°51'0 0.0
2017-Mar-28 17:29N 35°22' E 139°51'0 0.0
2017-Mar-28 16:29N 35°22' E 139°51'0 0.0
2017-Mar-28 15:26N 35°22' E 139°51'0 0.0
2017-Mar-28 14:29N 35°22' E 139°51'0 0.0
2017-Mar-28 13:29N 35°22' E 139°51'0 0.0
2017-Mar-28 12:32N 35°22' E 139°51'0 0.0
2017-Mar-28 11:32N 35°22' E 139°51'0 0.0
2017-Mar-28 10:29N 35°22' E 139°51'0 0.0
2017-Mar-28 09:32N 35°22' E 139°51'0 0.1
2017-Mar-28 08:32N 35°22' E 139°51'2 0.8
2017-Mar-28 06:04N 35°23' E 139°49'0 0.0
2017-Mar-28 05:25N 35°23' E 139°49'0 0.1
2017-Mar-28 04:33N 35°23' E 139°49'10 9.9
2017-Mar-28 03:33N 35°31' E 139°55'7 0.3
2017-Mar-27 05:30N 35°34' E 140°03'13 6.5
2017-Mar-27 03:33N 35°38' E 139°48'0 0.0
2017-Mar-26 22:29N 35°38' E 139°48'2 0.1
2017-Mar-25 06:33N 35°36' E 139°50'6 6.4
2017-Mar-25 05:33N 35°30' E 139°52'10 9.8
2017-Mar-25 04:33N 35°22' E 139°45'1010.3
2017-Mar-25 03:33N 35°12' E 139°47'  
2017-Mar-22 08:22N 34°37' E 135°01'910.8
2017-Mar-22 07:33N 34°36' E 135°12'1110.9
2017-Mar-22 06:34N 34°39' E 135°25'2 2.0
2017-Mar-22 05:29N 34°40' E 135°27'0 0.0
2017-Mar-22 03:23N 34°40' E 135°27'0 0.0
2017-Mar-22 01:29N 34°40' E 135°27'0 0.0
2017-Mar-22 00:29N 34°40' E 135°27'0 0.0
2017-Mar-21 23:29N 34°40' E 135°27'2 2.3
2017-Mar-21 22:33N 34°39' E 135°25'2 2.1
2017-Mar-21 21:32N 34°37' E 135°23'0 0.0
2017-Mar-21 20:32N 34°37' E 135°23'0 0.0
2017-Mar-21 19:32N 34°37' E 135°23'0 0.0
2017-Mar-21 18:32N 34°37' E 135°23'0 0.0
2017-Mar-21 17:32N 34°37' E 135°23'0 0.0
2017-Mar-21 16:26N 34°37' E 135°23'0 0.0
2017-Mar-21 15:32N 34°37' E 135°23'0 0.0
2017-Mar-21 14:20N 34°37' E 135°23'0 0.0
2017-Mar-21 13:32N 34°37' E 135°23'0 0.0
2017-Mar-21 12:14N 34°37' E 135°23'0 0.0
2017-Mar-21 11:32N 34°37' E 135°23'0 0.0
2017-Mar-21 10:32N 34°37' E 135°23'0 0.0
2017-Mar-21 09:32N 34°37' E 135°23'0 0.0
2017-Mar-21 08:20N 34°37' E 135°23'0 0.0
2017-Mar-21 07:32N 34°37' E 135°23'0 0.0
2017-Mar-21 06:32N 34°37' E 135°23'1 0.8
2017-Mar-21 05:33N 34°38' E 135°23'4 0.6
2017-Mar-20 23:31N 34°40' E 135°27'2 2.6
2017-Mar-20 22:33N 34°39' E 135°24'5 4.9
2017-Mar-20 21:33N 34°35' E 135°20'0 0.0
2017-Mar-20 20:28N 34°35' E 135°20'0 0.0
2017-Mar-20 19:22N 34°35' E 135°20'0 0.0
2017-Mar-20 18:28N 34°35' E 135°20'0 0.0
2017-Mar-20 17:10N 34°35' E 135°20'0 0.1
2017-Mar-20 16:28N 34°35' E 135°20'0 0.0
2017-Mar-20 15:22N 34°35' E 135°20'0 0.0
2017-Mar-20 14:28N 34°35' E 135°20'0 0.0
2017-Mar-20 12:28N 34°35' E 135°20'0 0.0
2017-Mar-20 10:16N 34°35' E 135°20'0 0.0
2017-Mar-20 09:28N 34°35' E 135°20'0 0.0
2017-Mar-20 08:28N 34°35' E 135°20'0 0.0
2017-Mar-20 06:28N 34°35' E 135°20'0 0.0
2017-Mar-20 05:22N 34°35' E 135°20'0 0.0
2017-Mar-20 03:28N 34°35' E 135°20'0 0.0
2017-Mar-20 01:28N 34°35' E 135°20'0 0.0
2017-Mar-20 00:10N 34°35' E 135°20'0 0.0
2017-Mar-19 23:22N 34°35' E 135°20'0 0.0
2017-Mar-19 22:16N 34°35' E 135°20'0 0.0
2017-Mar-19 21:16N 34°35' E 135°20'0 0.0
2017-Mar-19 18:28N 34°35' E 135°20'0 0.0
2017-Mar-19 17:04N 34°35' E 135°20'0 0.0
2017-Mar-19 15:16N 34°35' E 135°20'0 0.0
2017-Mar-19 14:10N 34°35' E 135°20'0 0.1
2017-Mar-19 13:28N 34°35' E 135°20'0 0.0
2017-Mar-19 12:28N 34°35' E 135°20'0 0.0
2017-Mar-19 11:28N 34°35' E 135°20'0 0.0
2017-Mar-19 09:28N 34°35' E 135°20'0 0.1
2017-Mar-19 08:33N 34°35' E 135°20'3 2.3
2017-Mar-19 07:29N 34°37' E 135°22'0 0.0
2017-Mar-19 05:23N 34°37' E 135°22'  
Track history (hours):
 
Tides and Currents Weather Stations Pressure Air Temp Water Temp Dewpoint Dewpoint Depression Visibility Wind Speed Wind Dir Waves Ship Positions

Udo Maru

Last reported at 2017-Mar-29 04:26 UTC. Time now 2017-Mar-29 05:23 UTC.
Position N 35°22' E 139°51'.

Length 87 m; draft 4.9 m.

Type: Cargo ship. MMSI: 431600499.

Date/timePositionNaut miles runAvg speedWind from/ knotsBaromVisibWave heightAir tempDewpointWater temp
2017-Mar-29 04:26N 35°22' E 139°51'0 0.0
2017-Mar-29 03:29N 35°22' E 139°51'0 0.0
2017-Mar-29 02:29N 35°22' E 139°51'0 0.0
2017-Mar-29 01:29N 35°22' E 139°51'0 0.0
2017-Mar-29 00:26N 35°22' E 139°51'0 0.0
2017-Mar-28 23:20N 35°22' E 139°51'0 0.0
2017-Mar-28 22:32N 35°22' E 139°51'0 0.0
2017-Mar-28 21:29N 35°22' E 139°51'0 0.0
2017-Mar-28 20:32N 35°22' E 139°51'0 0.0
2017-Mar-28 19:32N 35°22' E 139°51'0 0.0
2017-Mar-28 18:32N 35°22' E 139°51'0 0.0
2017-Mar-28 17:29N 35°22' E 139°51'0 0.0
2017-Mar-28 16:29N 35°22' E 139°51'0 0.0
2017-Mar-28 15:26N 35°22' E 139°51'0 0.0
2017-Mar-28 14:29N 35°22' E 139°51'0 0.0
2017-Mar-28 13:29N 35°22' E 139°51'0 0.0
2017-Mar-28 12:32N 35°22' E 139°51'0 0.0
2017-Mar-28 11:32N 35°22' E 139°51'0 0.0
2017-Mar-28 10:29N 35°22' E 139°51'0 0.0
2017-Mar-28 09:32N 35°22' E 139°51'0 0.1
2017-Mar-28 08:32N 35°22' E 139°51'2 0.8
2017-Mar-28 06:04N 35°23' E 139°49'0 0.0
2017-Mar-28 05:25N 35°23' E 139°49'0 0.1
2017-Mar-28 04:33N 35°23' E 139°49'10 9.9
2017-Mar-28 03:33N 35°31' E 139°55'7 0.3
2017-Mar-27 05:30N 35°34' E 140°03'13 6.5
2017-Mar-27 03:33N 35°38' E 139°48'0 0.0
2017-Mar-26 22:29N 35°38' E 139°48'2 0.1
2017-Mar-25 06:33N 35°36' E 139°50'6 6.4
2017-Mar-25 05:33N 35°30' E 139°52'10 9.8
2017-Mar-25 04:33N 35°22' E 139°45'1010.3
2017-Mar-25 03:33N 35°12' E 139°47'  
2017-Mar-22 08:22N 34°37' E 135°01'910.8
2017-Mar-22 07:33N 34°36' E 135°12'1110.9
2017-Mar-22 06:34N 34°39' E 135°25'2 2.0
2017-Mar-22 05:29N 34°40' E 135°27'0 0.0
2017-Mar-22 03:23N 34°40' E 135°27'0 0.0
2017-Mar-22 01:29N 34°40' E 135°27'0 0.0
2017-Mar-22 00:29N 34°40' E 135°27'0 0.0
2017-Mar-21 23:29N 34°40' E 135°27'2 2.3
2017-Mar-21 22:33N 34°39' E 135°25'2 2.1
2017-Mar-21 21:32N 34°37' E 135°23'0 0.0
2017-Mar-21 20:32N 34°37' E 135°23'0 0.0
2017-Mar-21 19:32N 34°37' E 135°23'0 0.0
2017-Mar-21 18:32N 34°37' E 135°23'0 0.0
2017-Mar-21 17:32N 34°37' E 135°23'0 0.0
2017-Mar-21 16:26N 34°37' E 135°23'0 0.0
2017-Mar-21 15:32N 34°37' E 135°23'0 0.0
2017-Mar-21 14:20N 34°37' E 135°23'0 0.0
2017-Mar-21 13:32N 34°37' E 135°23'0 0.0
2017-Mar-21 12:14N 34°37' E 135°23'0 0.0
2017-Mar-21 11:32N 34°37' E 135°23'0 0.0
2017-Mar-21 10:32N 34°37' E 135°23'0 0.0
2017-Mar-21 09:32N 34°37' E 135°23'0 0.0
2017-Mar-21 08:20N 34°37' E 135°23'0 0.0
2017-Mar-21 07:32N 34°37' E 135°23'0 0.0
2017-Mar-21 06:32N 34°37' E 135°23'1 0.8
2017-Mar-21 05:33N 34°38' E 135°23'4 0.6
2017-Mar-20 23:31N 34°40' E 135°27'2 2.6
2017-Mar-20 22:33N 34°39' E 135°24'5 4.9
2017-Mar-20 21:33N 34°35' E 135°20'0 0.0
2017-Mar-20 20:28N 34°35' E 135°20'0 0.0
2017-Mar-20 19:22N 34°35' E 135°20'0 0.0
2017-Mar-20 18:28N 34°35' E 135°20'0 0.0
2017-Mar-20 17:10N 34°35' E 135°20'0 0.1
2017-Mar-20 16:28N 34°35' E 135°20'0 0.0
2017-Mar-20 15:22N 34°35' E 135°20'0 0.0
2017-Mar-20 14:28N 34°35' E 135°20'0 0.0
2017-Mar-20 12:28N 34°35' E 135°20'0 0.0
2017-Mar-20 10:16N 34°35' E 135°20'0 0.0
2017-Mar-20 09:28N 34°35' E 135°20'0 0.0
2017-Mar-20 08:28N 34°35' E 135°20'0 0.0
2017-Mar-20 06:28N 34°35' E 135°20'0 0.0
2017-Mar-20 05:22N 34°35' E 135°20'0 0.0
2017-Mar-20 03:28N 34°35' E 135°20'0 0.0
2017-Mar-20 01:28N 34°35' E 135°20'0 0.0
2017-Mar-20 00:10N 34°35' E 135°20'0 0.0
2017-Mar-19 23:22N 34°35' E 135°20'0 0.0
2017-Mar-19 22:16N 34°35' E 135°20'0 0.0
2017-Mar-19 21:16N 34°35' E 135°20'0 0.0
2017-Mar-19 18:28N 34°35' E 135°20'0 0.0
2017-Mar-19 17:04N 34°35' E 135°20'0 0.0
2017-Mar-19 15:16N 34°35' E 135°20'0 0.0
2017-Mar-19 14:10N 34°35' E 135°20'0 0.1
2017-Mar-19 13:28N 34°35' E 135°20'0 0.0
2017-Mar-19 12:28N 34°35' E 135°20'0 0.0
2017-Mar-19 11:28N 34°35' E 135°20'0 0.0
2017-Mar-19 09:28N 34°35' E 135°20'0 0.1
2017-Mar-19 08:33N 34°35' E 135°20'3 2.3
2017-Mar-19 07:29N 34°37' E 135°22'0 0.0
2017-Mar-19 05:23N 34°37' E 135°22'  

Dump ship's entire track history